Terminal Aerodrome Forecast
Issued by NWS

Home | Current Version | Previous Version | Text Only | Print | Product List | Glossary Off
Versions: 1 2 3 4 5 6 7 8 9 10 11 12 13 14 15 16 17 18 19 20 21 22 23 24 25 26 27

000
FTUS43 KLOT 231740
TAFMDW
TAF
KMDW 231740Z 2318/2418 20006KT P6SM -SHRA SCT030 OVC060
     FM232100 13006KT 5SM -SHRA VCTS BKN035CB OVC050
      TEMPO 2322/2401 3SM SHRA SCT010 OVC025
     FM240100 07006KT 6SM -SHRA SCT020 OVC050
     FM240300 05005KT 5SM -SHRA SCT010 OVC020
     FM240600 03007KT 4SM BR SCT003 OVC008=

USA.gov is the U.S. government's official web portal to all federal, state and local government web resources and services.